Neptune Thelisis — 9HZV7 — position and weather

sailwx.info

Track history (hours):
 
Tides and Currents Weather Stations Pressure Air Temp Water Temp Dewpoint Dewpoint Depression Visibility Wind Speed Wind Dir Waves Ship Positions

Neptune Thelisis

Last reported at 2017-Dec-18 07:00 UTC. Time now 2017-Dec-18 07:17 UTC.
Position N 37°53' E 023°36'.

; draft 5.5 m.

Type: Ship. MMSI: 256049000.

Date/timePositionNaut miles runAvg speedWind from/ knotsBaromVisibWave heightAir tempDewpointWater temp
2017-Dec-18 07:00N 37°53' E 023°36'0 0.5
2017-Dec-18 06:30N 37°52' E 023°36'1 2.0
2017-Dec-18 06:00N 37°52' E 023°35'0 0.1
2017-Dec-18 05:30N 37°52' E 023°35'0 0.3
2017-Dec-18 05:00N 37°52' E 023°35'1 1.5
2017-Dec-18 04:30N 37°51' E 023°36'2 3.1
2017-Dec-18 04:00N 37°50' E 023°38'2 3.9
2017-Dec-18 03:30N 37°49' E 023°40'5 9.3
2017-Dec-18 03:00N 37°45' E 023°42'510.2
2017-Dec-18 02:30N 37°41' E 023°45'712.4
2017-Dec-18 01:55N 37°34' E 023°42'2312.9
2017-Dec-18 00:06N 37°12' E 023°32'914.6
2017-Dec-17 23:28N 37°03' E 023°28'  
2017-Dec-15 19:15N 44°03' E 014°04'313.3
2017-Dec-15 19:00N 44°06' E 014°02'713.3
2017-Dec-15 18:29N 44°12' E 013°56'613.1
2017-Dec-15 18:00N 44°17' E 013°51'713.1
2017-Dec-15 17:30N 44°23' E 013°46'612.8
2017-Dec-15 17:00N 44°28' E 013°41'612.8
2017-Dec-15 16:30N 44°33' E 013°36'612.9
2017-Dec-15 16:00N 44°39' E 013°32'612.7
2017-Dec-15 15:30N 44°44' E 013°27'612.7
2017-Dec-15 15:00N 44°49' E 013°21'613.0
2017-Dec-15 14:30N 44°54' E 013°16'713.1
2017-Dec-15 14:00N 44°60' E 013°11'713.4
2017-Dec-15 13:30N 45°06' E 013°06'713.1
2017-Dec-15 13:00N 45°12' E 013°03'713.3
2017-Dec-15 12:30N 45°19' E 013°03'713.3
2017-Dec-15 12:00N 45°25' E 013°07'4 8.2
2017-Dec-15 11:30N 45°28' E 013°10'613.0
2017-Dec-15 11:00N 45°32' E 013°17'713.1
2017-Dec-15 10:30N 45°35' E 013°26'612.9
2017-Dec-15 10:00N 45°37' E 013°34'612.9
2017-Dec-15 09:30N 45°34' E 013°42'2 2.7
2017-Dec-15 08:50N 45°33' E 013°44'0 0.0
2017-Dec-15 08:29N 45°33' E 013°44'0 0.0
2017-Dec-15 08:00N 45°33' E 013°44'0 0.0
2017-Dec-15 07:24N 45°33' E 013°44'0 0.0
2017-Dec-15 07:00N 45°33' E 013°44'0 0.0
2017-Dec-15 06:25N 45°33' E 013°44'0 0.0
2017-Dec-15 05:58N 45°33' E 013°44'0 0.0
2017-Dec-15 05:25N 45°33' E 013°44'0 0.0
2017-Dec-15 04:59N 45°33' E 013°44'0 0.0
2017-Dec-15 04:29N 45°33' E 013°44'0 0.0
2017-Dec-15 03:59N 45°33' E 013°44'0 0.0
2017-Dec-15 02:24N 45°33' E 013°44'0 0.0
2017-Dec-15 00:52N 45°33' E 013°44'0 0.0
2017-Dec-15 00:29N 45°33' E 013°44'0 0.0
2017-Dec-14 18:30N 45°33' E 013°44'0 0.0
2017-Dec-14 17:54N 45°33' E 013°44'0 0.0
2017-Dec-14 17:30N 45°33' E 013°44'0 0.0
2017-Dec-14 16:58N 45°33' E 013°44'0 0.0
2017-Dec-14 16:28N 45°33' E 013°44'0 0.0
2017-Dec-14 15:58N 45°33' E 013°44'0 0.0
2017-Dec-14 14:59N 45°33' E 013°44'0 0.0
2017-Dec-14 14:29N 45°33' E 013°44'0 0.0
2017-Dec-14 14:00N 45°33' E 013°44'0 0.0
2017-Dec-14 13:27N 45°33' E 013°44'0 0.0
2017-Dec-14 13:00N 45°33' E 013°44'0 0.0
2017-Dec-14 12:28N 45°33' E 013°44'0 0.0
2017-Dec-14 11:55N 45°33' E 013°44'0 0.0
2017-Dec-14 11:28N 45°33' E 013°44'0 0.0
2017-Dec-14 10:59N 45°33' E 013°44'0 0.0
2017-Dec-14 10:26N 45°33' E 013°44'0 0.0
2017-Dec-14 09:59N 45°33' E 013°44'0 0.0
2017-Dec-14 09:24N 45°33' E 013°44'0 0.0
2017-Dec-14 08:57N 45°33' E 013°44'0 0.0
2017-Dec-14 08:27N 45°33' E 013°44'0 0.0
2017-Dec-14 07:43N 45°33' E 013°44'0 0.0
2017-Dec-14 07:13N 45°33' E 013°44'0 0.0
2017-Dec-14 06:55N 45°33' E 013°44'0 0.0
2017-Dec-14 06:29N 45°33' E 013°44'0 0.0
2017-Dec-14 05:59N 45°33' E 013°44'0 0.0
2017-Dec-14 05:26N 45°33' E 013°44'0 0.0
2017-Dec-14 04:57N 45°33' E 013°44'0 0.0
2017-Dec-14 04:30N 45°33' E 013°44'0 0.0
2017-Dec-14 04:00N 45°33' E 013°44'0 0.0
2017-Dec-14 03:28N 45°33' E 013°44'0 0.0
2017-Dec-14 02:55N 45°33' E 013°44'0 0.0
2017-Dec-14 02:25N 45°33' E 013°44'0 0.0
2017-Dec-14 01:59N 45°33' E 013°44'0 0.0
2017-Dec-14 00:59N 45°33' E 013°44'0 0.0
2017-Dec-14 00:27N 45°33' E 013°44'0 0.0
2017-Dec-14 00:00N 45°33' E 013°44'0 0.0
2017-Dec-13 23:27N 45°33' E 013°44'0 0.0
2017-Dec-13 22:55N 45°33' E 013°44'0 0.0
2017-Dec-13 22:25N 45°33' E 013°44'0 0.0
2017-Dec-13 21:55N 45°33' E 013°44'0 0.0
2017-Dec-13 21:26N 45°33' E 013°44'0 0.0
2017-Dec-13 20:59N 45°33' E 013°44'0 0.0
2017-Dec-13 20:29N 45°33' E 013°44'0 0.0
2017-Dec-13 19:57N 45°33' E 013°44'0 0.0
2017-Dec-13 19:27N 45°33' E 013°44'0 0.0
2017-Dec-13 19:00N 45°33' E 013°44'0 0.0
2017-Dec-13 18:25N 45°33' E 013°44'0 0.0
2017-Dec-13 17:55N 45°33' E 013°44'0 0.0
2017-Dec-13 17:28N 45°33' E 013°44'0 0.0
2017-Dec-13 16:53N 45°33' E 013°44'0 0.0
2017-Dec-13 16:29N 45°33' E 013°44'0 0.0
2017-Dec-13 15:59N 45°33' E 013°44'0 0.0
2017-Dec-13 15:30N 45°33' E 013°44'0 0.0
2017-Dec-13 15:00N 45°33' E 013°44'0 0.0
2017-Dec-13 14:30N 45°33' E 013°44'0 0.0
2017-Dec-13 13:58N 45°33' E 013°44'0 0.0
2017-Dec-13 13:25N 45°33' E 013°44'0 0.0
2017-Dec-13 12:58N 45°33' E 013°44'0 0.0
2017-Dec-13 12:26N 45°33' E 013°44'0 0.0
2017-Dec-13 11:59N 45°33' E 013°44'0 0.0
2017-Dec-13 11:26N 45°33' E 013°44'0 0.0
2017-Dec-13 11:00N 45°33' E 013°44'0 0.0
2017-Dec-13 10:30N 45°33' E 013°44'0 0.0
2017-Dec-13 10:00N 45°33' E 013°44'0 0.0
2017-Dec-13 09:28N 45°33' E 013°44'0 0.0
2017-Dec-13 08:49N 45°33' E 013°44'0 0.0
2017-Dec-13 08:25N 45°33' E 013°44'0 0.0
2017-Dec-13 07:56N 45°33' E 013°44'0 0.0
2017-Dec-13 07:26N 45°33' E 013°44'0 0.0
2017-Dec-13 06:53N 45°33' E 013°44'0 0.0
2017-Dec-13 06:15N 45°33' E 013°44'0 0.0
2017-Dec-13 06:00N 45°33' E 013°44'0 0.0
2017-Dec-13 05:30N 45°33' E 013°44'0 0.0
2017-Dec-13 04:58N 45°33' E 013°44'0 0.0
2017-Dec-13 04:28N 45°33' E 013°44'0 0.0
2017-Dec-13 03:52N 45°33' E 013°44'0 0.0
2017-Dec-13 03:29N 45°33' E 013°44'0 0.0
2017-Dec-13 02:53N 45°33' E 013°44'0 0.0
2017-Dec-13 02:26N 45°33' E 013°44'0 0.0
2017-Dec-13 02:00N 45°33' E 013°44'0 0.0
2017-Dec-13 01:24N 45°33' E 013°44'0 0.0
2017-Dec-13 01:00N 45°33' E 013°44'0 0.0
2017-Dec-13 00:25N 45°33' E 013°44'0 0.0
2017-Dec-12 23:55N 45°33' E 013°44'0 0.0
2017-Dec-12 23:28N 45°33' E 013°44'0 0.0
2017-Dec-12 22:59N 45°33' E 013°44'0 0.0
2017-Dec-12 22:26N 45°33' E 013°44'0 0.0
2017-Dec-12 21:59N 45°33' E 013°44'0 0.0
2017-Dec-12 21:27N 45°33' E 013°44'0 0.0
2017-Dec-12 21:00N 45°33' E 013°44'0 0.0
2017-Dec-12 20:30N 45°33' E 013°44'0 0.0
2017-Dec-12 19:55N 45°33' E 013°44'0 0.0
2017-Dec-12 19:25N 45°33' E 013°44'0 0.0
2017-Dec-12 18:58N 45°33' E 013°44'0 0.0
2017-Dec-12 18:29N 45°33' E 013°44'0 0.0
2017-Dec-12 17:59N 45°33' E 013°44'0 0.0
2017-Dec-12 17:29N 45°33' E 013°44'0 0.0
2017-Dec-12 17:00N 45°33' E 013°44'0 0.0
2017-Dec-12 16:27N 45°33' E 013°44'0 0.0
2017-Dec-12 16:00N 45°33' E 013°44'0 0.0
2017-Dec-12 15:31N 45°33' E 013°44'2 4.7
2017-Dec-12 15:00N 45°34' E 013°41'0 0.8
2017-Dec-12 14:30N 45°34' E 013°40'0 0.1
2017-Dec-12 14:00N 45°34' E 013°40'0 0.0
2017-Dec-12 13:27N 45°34' E 013°40'0 0.0
2017-Dec-12 12:55N 45°34' E 013°40'0 0.0
2017-Dec-12 12:28N 45°34' E 013°40'0 0.0
2017-Dec-12 11:50N 45°34' E 013°40'0 0.0
2017-Dec-12 11:29N 45°34' E 013°40'0 0.0
2017-Dec-12 10:56N 45°34' E 013°40'0 0.0
2017-Dec-12 10:29N 45°34' E 013°40'0 0.0
2017-Dec-12 10:00N 45°34' E 013°40'0 0.0
2017-Dec-12 09:27N 45°34' E 013°40'0 0.1
2017-Dec-12 09:00N 45°34' E 013°40'0 0.1
2017-Dec-12 08:28N 45°34' E 013°40'0 0.1
2017-Dec-12 07:58N 45°34' E 013°40'0 0.1
2017-Dec-12 07:28N 45°34' E 013°40'0 0.0
2017-Dec-12 06:56N 45°34' E 013°40'0 0.1
2017-Dec-12 06:23N 45°34' E 013°40'0 0.1
2017-Dec-12 05:53N 45°34' E 013°41'0 0.2
2017-Dec-12 05:30N 45°34' E 013°40'0 0.0
2017-Dec-12 05:00N 45°34' E 013°40'0 0.0
2017-Dec-12 04:24N 45°34' E 013°40'0 0.1
2017-Dec-12 03:58N 45°34' E 013°40'0 0.0
2017-Dec-12 03:28N 45°34' E 013°40'0 0.1
2017-Dec-12 02:58N 45°34' E 013°40'0 0.1
2017-Dec-12 02:29N 45°34' E 013°40'0 0.0
2017-Dec-12 01:59N 45°34' E 013°40'0 0.1
2017-Dec-12 01:29N 45°34' E 013°40'0 0.1
2017-Dec-12 01:00N 45°34' E 013°40'0 0.1
2017-Dec-12 00:30N 45°34' E 013°40'0 0.1
2017-Dec-12 00:00N 45°34' E 013°40'0 0.0
2017-Dec-11 23:28N 45°34' E 013°40'0 0.0
2017-Dec-11 22:58N 45°34' E 013°40'0 0.1
2017-Dec-11 22:28N 45°34' E 013°40'0 0.1
2017-Dec-11 21:59N 45°34' E 013°40'0 0.1
2017-Dec-11 21:29N 45°34' E 013°40'0 0.1
2017-Dec-11 20:59N 45°34' E 013°40'0 0.0
2017-Dec-11 20:30N 45°34' E 013°40'0 0.0
2017-Dec-11 20:00N 45°34' E 013°40'0 0.0
2017-Dec-11 19:30N 45°34' E 013°40'0 0.1
2017-Dec-11 18:58N 45°34' E 013°40'0 0.1
2017-Dec-11 18:28N 45°34' E 013°40'0 1.0
2017-Dec-11 17:58N 45°35' E 013°41'0 0.1
2017-Dec-11 17:26N 45°35' E 013°41'0 0.0
2017-Dec-11 16:56N 45°35' E 013°40'0 0.0
2017-Dec-11 16:29N 45°35' E 013°40'0 0.1
2017-Dec-11 15:57N 45°34' E 013°41'0 0.1
2017-Dec-11 15:27N 45°34' E 013°41'0 0.0
2017-Dec-11 15:00N 45°34' E 013°41'0 0.0
2017-Dec-11 14:25N 45°34' E 013°41'0 0.1
2017-Dec-11 13:58N 45°34' E 013°40'0 0.0
2017-Dec-11 13:22N 45°34' E 013°41'0 0.1
2017-Dec-11 12:59N 45°34' E 013°41'0 0.1
2017-Dec-11 12:26N 45°34' E 013°40'0 0.1
2017-Dec-11 11:56N 45°34' E 013°41'0 0.1
2017-Dec-11 11:30N 45°34' E 013°40'0 0.1
2017-Dec-11 11:00N 45°34' E 013°41'0 0.0
2017-Dec-11 10:18N 45°34' E 013°41'0 0.0
2017-Dec-11 09:52N 45°34' E 013°40'0 0.1
2017-Dec-11 09:25N 45°34' E 013°40'0 0.1
2017-Dec-11 08:58N 45°34' E 013°41'0 0.1
2017-Dec-11 08:29N 45°34' E 013°40'0 0.1
2017-Dec-11 07:59N 45°34' E 013°41'0 0.1
2017-Dec-11 07:29N 45°34' E 013°41'0 0.0
2017-Dec-11 07:00N 45°34' E 013°41'0 0.0
2017-Dec-11 06:27N 45°34' E 013°41'0 0.0
2017-Dec-11 05:57N 45°34' E 013°41'0 0.0
2017-Dec-11 05:28N 45°34' E 013°41'0 0.0
2017-Dec-11 04:58N 45°34' E 013°41'0 0.0
2017-Dec-11 04:25N 45°34' E 013°41'0 0.0
2017-Dec-11 03:59N 45°34' E 013°41'0 0.0
2017-Dec-11 03:29N 45°34' E 013°41'0 0.0
2017-Dec-11 02:56N 45°34' E 013°41'0 0.0
2017-Dec-11 02:30N 45°34' E 013°41'0 0.0
2017-Dec-11 02:00N 45°34' E 013°41'0 0.0
2017-Dec-11 01:30N 45°34' E 013°41'0 0.0
2017-Dec-11 00:58N 45°34' E 013°41'0 0.0
2017-Dec-11 00:22N 45°34' E 013°41'0 0.0
2017-Dec-10 23:58N 45°34' E 013°41'0 0.1
2017-Dec-10 23:29N 45°34' E 013°41'0 0.0
2017-Dec-10 22:59N 45°34' E 013°41'0 0.0
2017-Dec-10 22:18N 45°34' E 013°41'0 0.0
2017-Dec-10 22:00N 45°34' E 013°41'0 0.0
2017-Dec-10 21:30N 45°34' E 013°41'0 0.2
2017-Dec-10 21:00N 45°34' E 013°40'0 0.0
2017-Dec-10 20:28N 45°34' E 013°40'0 0.0
2017-Dec-10 19:58N 45°34' E 013°40'0 0.0
2017-Dec-10 19:28N 45°34' E 013°40'0 0.0
2017-Dec-10 18:59N 45°34' E 013°40'0 0.0
2017-Dec-10 18:29N 45°34' E 013°40'0 0.0
2017-Dec-10 17:53N 45°34' E 013°40'0 0.1
2017-Dec-10 17:30N 45°34' E 013°41'0 0.1
2017-Dec-10 17:00N 45°34' E 013°40'0 0.0
2017-Dec-10 16:24N 45°34' E 013°40'0 0.1
2017-Dec-10 15:58N 45°34' E 013°41'0 0.0
2017-Dec-10 15:28N 45°34' E 013°41'0 0.0
2017-Dec-10 14:58N 45°34' E 013°41'0 0.0
2017-Dec-10 14:29N 45°34' E 013°41'0 0.0
2017-Dec-10 13:59N 45°34' E 013°41'0 0.0
2017-Dec-10 13:21N 45°34' E 013°41'0 0.0
2017-Dec-10 12:57N 45°34' E 013°41'0 0.0
2017-Dec-10 12:30N 45°34' E 013°41'0 0.0
2017-Dec-10 11:57N 45°34' E 013°41'0 0.1
2017-Dec-10 11:28N 45°34' E 013°41'0 0.0
2017-Dec-10 10:37N 45°34' E 013°40'0 0.2
2017-Dec-10 10:28N 45°34' E 013°41'0 0.0
2017-Dec-10 09:56N 45°34' E 013°41'0 0.0
2017-Dec-10 09:26N 45°34' E 013°41'0 0.0
2017-Dec-10 08:59N 45°34' E 013°41'0 0.0
2017-Dec-10 08:27N 45°34' E 013°41'0 0.0
2017-Dec-10 08:00N 45°34' E 013°41'0 0.0
2017-Dec-10 07:24N 45°34' E 013°40'0 0.1
2017-Dec-10 06:55N 45°34' E 013°41'0 0.1
2017-Dec-10 06:28N 45°34' E 013°40'0 0.0
2017-Dec-10 05:52N 45°34' E 013°40'0 0.1
2017-Dec-10 05:29N 45°34' E 013°40'0 0.1
2017-Dec-10 04:59N 45°34' E 013°40'0 0.0
2017-Dec-10 04:26N 45°34' E 013°40'1 1.4
2017-Dec-10 04:00N 45°35' E 013°40'510.3
2017-Dec-10 03:30N 45°34' E 013°32'713.7
2017-Dec-10 03:00N 45°31' E 013°24'713.8
2017-Dec-10 02:31N 45°26' E 013°17'713.2
2017-Dec-10 02:00N 45°21' E 013°12'714.1
2017-Dec-10 01:30N 45°14' E 013°14'714.3
2017-Dec-10 01:00N 45°07' E 013°16'714.2
2017-Dec-10 00:30N 45°00' E 013°20'714.3
2017-Dec-10 00:00N 44°54' E 013°25'714.6
2017-Dec-09 23:31N 44°48' E 013°30'917.2
2017-Dec-09 23:01N 44°41' E 013°37'917.2
2017-Dec-09 22:30N 44°34' E 013°44'816.8
2017-Dec-09 22:00N 44°27' E 013°50'917.0
2017-Dec-09 21:31N 44°19' E 013°57'  
Track history (hours):
 
Tides and Currents Weather Stations Pressure Air Temp Water Temp Dewpoint Dewpoint Depression Visibility Wind Speed Wind Dir Waves Ship Positions

Neptune Thelisis

Last reported at 2017-Dec-18 07:00 UTC. Time now 2017-Dec-18 07:17 UTC.
Position N 37°53' E 023°36'.

; draft 5.5 m.

Type: Ship. MMSI: 256049000.

Date/timePositionNaut miles runAvg speedWind from/ knotsBaromVisibWave heightAir tempDewpointWater temp
2017-Dec-18 07:00N 37°53' E 023°36'0 0.5
2017-Dec-18 06:30N 37°52' E 023°36'1 2.0
2017-Dec-18 06:00N 37°52' E 023°35'0 0.1
2017-Dec-18 05:30N 37°52' E 023°35'0 0.3
2017-Dec-18 05:00N 37°52' E 023°35'1 1.5
2017-Dec-18 04:30N 37°51' E 023°36'2 3.1
2017-Dec-18 04:00N 37°50' E 023°38'2 3.9
2017-Dec-18 03:30N 37°49' E 023°40'5 9.3
2017-Dec-18 03:00N 37°45' E 023°42'510.2
2017-Dec-18 02:30N 37°41' E 023°45'712.4
2017-Dec-18 01:55N 37°34' E 023°42'2312.9
2017-Dec-18 00:06N 37°12' E 023°32'914.6
2017-Dec-17 23:28N 37°03' E 023°28'  
2017-Dec-15 19:15N 44°03' E 014°04'313.3
2017-Dec-15 19:00N 44°06' E 014°02'713.3
2017-Dec-15 18:29N 44°12' E 013°56'613.1
2017-Dec-15 18:00N 44°17' E 013°51'713.1
2017-Dec-15 17:30N 44°23' E 013°46'612.8
2017-Dec-15 17:00N 44°28' E 013°41'612.8
2017-Dec-15 16:30N 44°33' E 013°36'612.9
2017-Dec-15 16:00N 44°39' E 013°32'612.7
2017-Dec-15 15:30N 44°44' E 013°27'612.7
2017-Dec-15 15:00N 44°49' E 013°21'613.0
2017-Dec-15 14:30N 44°54' E 013°16'713.1
2017-Dec-15 14:00N 44°60' E 013°11'713.4
2017-Dec-15 13:30N 45°06' E 013°06'713.1
2017-Dec-15 13:00N 45°12' E 013°03'713.3
2017-Dec-15 12:30N 45°19' E 013°03'713.3
2017-Dec-15 12:00N 45°25' E 013°07'4 8.2
2017-Dec-15 11:30N 45°28' E 013°10'613.0
2017-Dec-15 11:00N 45°32' E 013°17'713.1
2017-Dec-15 10:30N 45°35' E 013°26'612.9
2017-Dec-15 10:00N 45°37' E 013°34'612.9
2017-Dec-15 09:30N 45°34' E 013°42'2 2.7
2017-Dec-15 08:50N 45°33' E 013°44'0 0.0
2017-Dec-15 08:29N 45°33' E 013°44'0 0.0
2017-Dec-15 08:00N 45°33' E 013°44'0 0.0
2017-Dec-15 07:24N 45°33' E 013°44'0 0.0
2017-Dec-15 07:00N 45°33' E 013°44'0 0.0
2017-Dec-15 06:25N 45°33' E 013°44'0 0.0
2017-Dec-15 05:58N 45°33' E 013°44'0 0.0
2017-Dec-15 05:25N 45°33' E 013°44'0 0.0
2017-Dec-15 04:59N 45°33' E 013°44'0 0.0
2017-Dec-15 04:29N 45°33' E 013°44'0 0.0
2017-Dec-15 03:59N 45°33' E 013°44'0 0.0
2017-Dec-15 02:24N 45°33' E 013°44'0 0.0
2017-Dec-15 00:52N 45°33' E 013°44'0 0.0
2017-Dec-15 00:29N 45°33' E 013°44'0 0.0
2017-Dec-14 18:30N 45°33' E 013°44'0 0.0
2017-Dec-14 17:54N 45°33' E 013°44'0 0.0
2017-Dec-14 17:30N 45°33' E 013°44'0 0.0
2017-Dec-14 16:58N 45°33' E 013°44'0 0.0
2017-Dec-14 16:28N 45°33' E 013°44'0 0.0
2017-Dec-14 15:58N 45°33' E 013°44'0 0.0
2017-Dec-14 14:59N 45°33' E 013°44'0 0.0
2017-Dec-14 14:29N 45°33' E 013°44'0 0.0
2017-Dec-14 14:00N 45°33' E 013°44'0 0.0
2017-Dec-14 13:27N 45°33' E 013°44'0 0.0
2017-Dec-14 13:00N 45°33' E 013°44'0 0.0
2017-Dec-14 12:28N 45°33' E 013°44'0 0.0
2017-Dec-14 11:55N 45°33' E 013°44'0 0.0
2017-Dec-14 11:28N 45°33' E 013°44'0 0.0
2017-Dec-14 10:59N 45°33' E 013°44'0 0.0
2017-Dec-14 10:26N 45°33' E 013°44'0 0.0
2017-Dec-14 09:59N 45°33' E 013°44'0 0.0
2017-Dec-14 09:24N 45°33' E 013°44'0 0.0
2017-Dec-14 08:57N 45°33' E 013°44'0 0.0
2017-Dec-14 08:27N 45°33' E 013°44'0 0.0
2017-Dec-14 07:43N 45°33' E 013°44'0 0.0
2017-Dec-14 07:13N 45°33' E 013°44'0 0.0
2017-Dec-14 06:55N 45°33' E 013°44'0 0.0
2017-Dec-14 06:29N 45°33' E 013°44'0 0.0
2017-Dec-14 05:59N 45°33' E 013°44'0 0.0
2017-Dec-14 05:26N 45°33' E 013°44'0 0.0
2017-Dec-14 04:57N 45°33' E 013°44'0 0.0
2017-Dec-14 04:30N 45°33' E 013°44'0 0.0
2017-Dec-14 04:00N 45°33' E 013°44'0 0.0
2017-Dec-14 03:28N 45°33' E 013°44'0 0.0
2017-Dec-14 02:55N 45°33' E 013°44'0 0.0
2017-Dec-14 02:25N 45°33' E 013°44'0 0.0
2017-Dec-14 01:59N 45°33' E 013°44'0 0.0
2017-Dec-14 00:59N 45°33' E 013°44'0 0.0
2017-Dec-14 00:27N 45°33' E 013°44'0 0.0
2017-Dec-14 00:00N 45°33' E 013°44'0 0.0
2017-Dec-13 23:27N 45°33' E 013°44'0 0.0
2017-Dec-13 22:55N 45°33' E 013°44'0 0.0
2017-Dec-13 22:25N 45°33' E 013°44'0 0.0
2017-Dec-13 21:55N 45°33' E 013°44'0 0.0
2017-Dec-13 21:26N 45°33' E 013°44'0 0.0
2017-Dec-13 20:59N 45°33' E 013°44'0 0.0
2017-Dec-13 20:29N 45°33' E 013°44'0 0.0
2017-Dec-13 19:57N 45°33' E 013°44'0 0.0
2017-Dec-13 19:27N 45°33' E 013°44'0 0.0
2017-Dec-13 19:00N 45°33' E 013°44'0 0.0
2017-Dec-13 18:25N 45°33' E 013°44'0 0.0
2017-Dec-13 17:55N 45°33' E 013°44'0 0.0
2017-Dec-13 17:28N 45°33' E 013°44'0 0.0
2017-Dec-13 16:53N 45°33' E 013°44'0 0.0
2017-Dec-13 16:29N 45°33' E 013°44'0 0.0
2017-Dec-13 15:59N 45°33' E 013°44'0 0.0
2017-Dec-13 15:30N 45°33' E 013°44'0 0.0
2017-Dec-13 15:00N 45°33' E 013°44'0 0.0
2017-Dec-13 14:30N 45°33' E 013°44'0 0.0
2017-Dec-13 13:58N 45°33' E 013°44'0 0.0
2017-Dec-13 13:25N 45°33' E 013°44'0 0.0
2017-Dec-13 12:58N 45°33' E 013°44'0 0.0
2017-Dec-13 12:26N 45°33' E 013°44'0 0.0
2017-Dec-13 11:59N 45°33' E 013°44'0 0.0
2017-Dec-13 11:26N 45°33' E 013°44'0 0.0
2017-Dec-13 11:00N 45°33' E 013°44'0 0.0
2017-Dec-13 10:30N 45°33' E 013°44'0 0.0
2017-Dec-13 10:00N 45°33' E 013°44'0 0.0
2017-Dec-13 09:28N 45°33' E 013°44'0 0.0
2017-Dec-13 08:49N 45°33' E 013°44'0 0.0
2017-Dec-13 08:25N 45°33' E 013°44'0 0.0
2017-Dec-13 07:56N 45°33' E 013°44'0 0.0
2017-Dec-13 07:26N 45°33' E 013°44'0 0.0
2017-Dec-13 06:53N 45°33' E 013°44'0 0.0
2017-Dec-13 06:15N 45°33' E 013°44'0 0.0
2017-Dec-13 06:00N 45°33' E 013°44'0 0.0
2017-Dec-13 05:30N 45°33' E 013°44'0 0.0
2017-Dec-13 04:58N 45°33' E 013°44'0 0.0
2017-Dec-13 04:28N 45°33' E 013°44'0 0.0
2017-Dec-13 03:52N 45°33' E 013°44'0 0.0
2017-Dec-13 03:29N 45°33' E 013°44'0 0.0
2017-Dec-13 02:53N 45°33' E 013°44'0 0.0
2017-Dec-13 02:26N 45°33' E 013°44'0 0.0
2017-Dec-13 02:00N 45°33' E 013°44'0 0.0
2017-Dec-13 01:24N 45°33' E 013°44'0 0.0
2017-Dec-13 01:00N 45°33' E 013°44'0 0.0
2017-Dec-13 00:25N 45°33' E 013°44'0 0.0
2017-Dec-12 23:55N 45°33' E 013°44'0 0.0
2017-Dec-12 23:28N 45°33' E 013°44'0 0.0
2017-Dec-12 22:59N 45°33' E 013°44'0 0.0
2017-Dec-12 22:26N 45°33' E 013°44'0 0.0
2017-Dec-12 21:59N 45°33' E 013°44'0 0.0
2017-Dec-12 21:27N 45°33' E 013°44'0 0.0
2017-Dec-12 21:00N 45°33' E 013°44'0 0.0
2017-Dec-12 20:30N 45°33' E 013°44'0 0.0
2017-Dec-12 19:55N 45°33' E 013°44'0 0.0
2017-Dec-12 19:25N 45°33' E 013°44'0 0.0
2017-Dec-12 18:58N 45°33' E 013°44'0 0.0
2017-Dec-12 18:29N 45°33' E 013°44'0 0.0
2017-Dec-12 17:59N 45°33' E 013°44'0 0.0
2017-Dec-12 17:29N 45°33' E 013°44'0 0.0
2017-Dec-12 17:00N 45°33' E 013°44'0 0.0
2017-Dec-12 16:27N 45°33' E 013°44'0 0.0
2017-Dec-12 16:00N 45°33' E 013°44'0 0.0
2017-Dec-12 15:31N 45°33' E 013°44'2 4.7
2017-Dec-12 15:00N 45°34' E 013°41'0 0.8
2017-Dec-12 14:30N 45°34' E 013°40'0 0.1
2017-Dec-12 14:00N 45°34' E 013°40'0 0.0
2017-Dec-12 13:27N 45°34' E 013°40'0 0.0
2017-Dec-12 12:55N 45°34' E 013°40'0 0.0
2017-Dec-12 12:28N 45°34' E 013°40'0 0.0
2017-Dec-12 11:50N 45°34' E 013°40'0 0.0
2017-Dec-12 11:29N 45°34' E 013°40'0 0.0
2017-Dec-12 10:56N 45°34' E 013°40'0 0.0
2017-Dec-12 10:29N 45°34' E 013°40'0 0.0
2017-Dec-12 10:00N 45°34' E 013°40'0 0.0
2017-Dec-12 09:27N 45°34' E 013°40'0 0.1
2017-Dec-12 09:00N 45°34' E 013°40'0 0.1
2017-Dec-12 08:28N 45°34' E 013°40'0 0.1
2017-Dec-12 07:58N 45°34' E 013°40'0 0.1
2017-Dec-12 07:28N 45°34' E 013°40'0 0.0
2017-Dec-12 06:56N 45°34' E 013°40'0 0.1
2017-Dec-12 06:23N 45°34' E 013°40'0 0.1
2017-Dec-12 05:53N 45°34' E 013°41'0 0.2
2017-Dec-12 05:30N 45°34' E 013°40'0 0.0
2017-Dec-12 05:00N 45°34' E 013°40'0 0.0
2017-Dec-12 04:24N 45°34' E 013°40'0 0.1
2017-Dec-12 03:58N 45°34' E 013°40'0 0.0
2017-Dec-12 03:28N 45°34' E 013°40'0 0.1
2017-Dec-12 02:58N 45°34' E 013°40'0 0.1
2017-Dec-12 02:29N 45°34' E 013°40'0 0.0
2017-Dec-12 01:59N 45°34' E 013°40'0 0.1
2017-Dec-12 01:29N 45°34' E 013°40'0 0.1
2017-Dec-12 01:00N 45°34' E 013°40'0 0.1
2017-Dec-12 00:30N 45°34' E 013°40'0 0.1
2017-Dec-12 00:00N 45°34' E 013°40'0 0.0
2017-Dec-11 23:28N 45°34' E 013°40'0 0.0
2017-Dec-11 22:58N 45°34' E 013°40'0 0.1
2017-Dec-11 22:28N 45°34' E 013°40'0 0.1
2017-Dec-11 21:59N 45°34' E 013°40'0 0.1
2017-Dec-11 21:29N 45°34' E 013°40'0 0.1
2017-Dec-11 20:59N 45°34' E 013°40'0 0.0
2017-Dec-11 20:30N 45°34' E 013°40'0 0.0
2017-Dec-11 20:00N 45°34' E 013°40'0 0.0
2017-Dec-11 19:30N 45°34' E 013°40'0 0.1
2017-Dec-11 18:58N 45°34' E 013°40'0 0.1
2017-Dec-11 18:28N 45°34' E 013°40'0 1.0
2017-Dec-11 17:58N 45°35' E 013°41'0 0.1
2017-Dec-11 17:26N 45°35' E 013°41'0 0.0
2017-Dec-11 16:56N 45°35' E 013°40'0 0.0
2017-Dec-11 16:29N 45°35' E 013°40'0 0.1
2017-Dec-11 15:57N 45°34' E 013°41'0 0.1
2017-Dec-11 15:27N 45°34' E 013°41'0 0.0
2017-Dec-11 15:00N 45°34' E 013°41'0 0.0
2017-Dec-11 14:25N 45°34' E 013°41'0 0.1
2017-Dec-11 13:58N 45°34' E 013°40'0 0.0
2017-Dec-11 13:22N 45°34' E 013°41'0 0.1
2017-Dec-11 12:59N 45°34' E 013°41'0 0.1
2017-Dec-11 12:26N 45°34' E 013°40'0 0.1
2017-Dec-11 11:56N 45°34' E 013°41'0 0.1
2017-Dec-11 11:30N 45°34' E 013°40'0 0.1
2017-Dec-11 11:00N 45°34' E 013°41'0 0.0
2017-Dec-11 10:18N 45°34' E 013°41'0 0.0
2017-Dec-11 09:52N 45°34' E 013°40'0 0.1
2017-Dec-11 09:25N 45°34' E 013°40'0 0.1
2017-Dec-11 08:58N 45°34' E 013°41'0 0.1
2017-Dec-11 08:29N 45°34' E 013°40'0 0.1
2017-Dec-11 07:59N 45°34' E 013°41'0 0.1
2017-Dec-11 07:29N 45°34' E 013°41'0 0.0
2017-Dec-11 07:00N 45°34' E 013°41'0 0.0
2017-Dec-11 06:27N 45°34' E 013°41'0 0.0
2017-Dec-11 05:57N 45°34' E 013°41'0 0.0
2017-Dec-11 05:28N 45°34' E 013°41'0 0.0
2017-Dec-11 04:58N 45°34' E 013°41'0 0.0
2017-Dec-11 04:25N 45°34' E 013°41'0 0.0
2017-Dec-11 03:59N 45°34' E 013°41'0 0.0
2017-Dec-11 03:29N 45°34' E 013°41'0 0.0
2017-Dec-11 02:56N 45°34' E 013°41'0 0.0
2017-Dec-11 02:30N 45°34' E 013°41'0 0.0
2017-Dec-11 02:00N 45°34' E 013°41'0 0.0
2017-Dec-11 01:30N 45°34' E 013°41'0 0.0
2017-Dec-11 00:58N 45°34' E 013°41'0 0.0
2017-Dec-11 00:22N 45°34' E 013°41'0 0.0
2017-Dec-10 23:58N 45°34' E 013°41'0 0.1
2017-Dec-10 23:29N 45°34' E 013°41'0 0.0
2017-Dec-10 22:59N 45°34' E 013°41'0 0.0
2017-Dec-10 22:18N 45°34' E 013°41'0 0.0
2017-Dec-10 22:00N 45°34' E 013°41'0 0.0
2017-Dec-10 21:30N 45°34' E 013°41'0 0.2
2017-Dec-10 21:00N 45°34' E 013°40'0 0.0
2017-Dec-10 20:28N 45°34' E 013°40'0 0.0
2017-Dec-10 19:58N 45°34' E 013°40'0 0.0
2017-Dec-10 19:28N 45°34' E 013°40'0 0.0
2017-Dec-10 18:59N 45°34' E 013°40'0 0.0
2017-Dec-10 18:29N 45°34' E 013°40'0 0.0
2017-Dec-10 17:53N 45°34' E 013°40'0 0.1
2017-Dec-10 17:30N 45°34' E 013°41'0 0.1
2017-Dec-10 17:00N 45°34' E 013°40'0 0.0
2017-Dec-10 16:24N 45°34' E 013°40'0 0.1
2017-Dec-10 15:58N 45°34' E 013°41'0 0.0
2017-Dec-10 15:28N 45°34' E 013°41'0 0.0
2017-Dec-10 14:58N 45°34' E 013°41'0 0.0
2017-Dec-10 14:29N 45°34' E 013°41'0 0.0
2017-Dec-10 13:59N 45°34' E 013°41'0 0.0
2017-Dec-10 13:21N 45°34' E 013°41'0 0.0
2017-Dec-10 12:57N 45°34' E 013°41'0 0.0
2017-Dec-10 12:30N 45°34' E 013°41'0 0.0
2017-Dec-10 11:57N 45°34' E 013°41'0 0.1
2017-Dec-10 11:28N 45°34' E 013°41'0 0.0
2017-Dec-10 10:37N 45°34' E 013°40'0 0.2
2017-Dec-10 10:28N 45°34' E 013°41'0 0.0
2017-Dec-10 09:56N 45°34' E 013°41'0 0.0
2017-Dec-10 09:26N 45°34' E 013°41'0 0.0
2017-Dec-10 08:59N 45°34' E 013°41'0 0.0
2017-Dec-10 08:27N 45°34' E 013°41'0 0.0
2017-Dec-10 08:00N 45°34' E 013°41'0 0.0
2017-Dec-10 07:24N 45°34' E 013°40'0 0.1
2017-Dec-10 06:55N 45°34' E 013°41'0 0.1
2017-Dec-10 06:28N 45°34' E 013°40'0 0.0
2017-Dec-10 05:52N 45°34' E 013°40'0 0.1
2017-Dec-10 05:29N 45°34' E 013°40'0 0.1
2017-Dec-10 04:59N 45°34' E 013°40'0 0.0
2017-Dec-10 04:26N 45°34' E 013°40'1 1.4
2017-Dec-10 04:00N 45°35' E 013°40'510.3
2017-Dec-10 03:30N 45°34' E 013°32'713.7
2017-Dec-10 03:00N 45°31' E 013°24'713.8
2017-Dec-10 02:31N 45°26' E 013°17'713.2
2017-Dec-10 02:00N 45°21' E 013°12'714.1
2017-Dec-10 01:30N 45°14' E 013°14'714.3
2017-Dec-10 01:00N 45°07' E 013°16'714.2
2017-Dec-10 00:30N 45°00' E 013°20'714.3
2017-Dec-10 00:00N 44°54' E 013°25'714.6
2017-Dec-09 23:31N 44°48' E 013°30'917.2
2017-Dec-09 23:01N 44°41' E 013°37'917.2
2017-Dec-09 22:30N 44°34' E 013°44'816.8
2017-Dec-09 22:00N 44°27' E 013°50'917.0
2017-Dec-09 21:31N 44°19' E 013°57'  

Dump ship's entire track history